createdAt,value
2023-05-04T00:02:03.461Z,9.93
2023-05-04T00:04:30.002Z,6.38
2023-05-04T00:06:56.419Z,8.32
2023-05-04T00:09:22.835Z,7.88
2023-05-04T00:11:49.260Z,7.45
2023-05-04T00:14:15.706Z,10.43
2023-05-04T00:16:42.158Z,9.15
2023-05-04T00:19:08.598Z,6.68
2023-05-04T00:21:35.093Z,8.23
2023-05-04T00:24:02.349Z,8.55
2023-05-04T00:26:28.876Z,6.30
2023-05-04T00:28:55.417Z,6.78
2023-05-04T00:31:22.122Z,5.18
2023-05-04T00:33:48.556Z,7.75
2023-05-04T00:36:14.987Z,7.57
2023-05-04T00:38:51.956Z,6.47
2023-05-04T00:41:19.669Z,8.27
2023-05-04T00:43:46.765Z,7.78
2023-05-04T00:46:14.039Z,4.75
2023-05-04T00:48:48.679Z,5.55
2023-05-04T00:51:16.980Z,6.85
2023-05-04T00:53:44.036Z,5.60
2023-05-04T00:56:11.071Z,8.07
2023-05-04T00:58:37.444Z,5.72
2023-05-04T01:01:04.107Z,5.32
2023-05-04T01:03:31.518Z,7.32
2023-05-04T01:06:22.327Z,10.75
2023-05-04T01:09:03.872Z,6.95
2023-05-04T01:11:58.257Z,6.15
2023-05-04T01:14:25.310Z,10.82
2023-05-04T01:16:58.566Z,7.03
2023-05-04T01:19:27.598Z,7.32
2023-05-04T01:21:54.012Z,8.25
2023-05-04T01:24:21.044Z,9.60
2023-05-04T01:26:52.286Z,9.27
2023-05-04T01:29:27.577Z,5.57
2023-05-04T01:31:55.670Z,6.50
2023-05-04T01:34:22.602Z,8.77
2023-05-04T01:36:49.517Z,7.90
2023-05-04T01:39:16.027Z,6.20
2023-05-04T01:41:42.708Z,10.25
2023-05-04T01:44:09.232Z,8.65
2023-05-04T01:46:35.761Z,6.00
2023-05-04T01:49:02.348Z,8.57
2023-05-04T01:51:28.806Z,11.57
2023-05-04T01:53:55.266Z,6.55
2023-05-04T01:56:22.193Z,8.27
2023-05-04T01:58:48.733Z,7.70
2023-05-04T02:01:15.250Z,6.03
2023-05-04T02:03:42.071Z,7.63
2023-05-04T02:06:08.704Z,9.43
2023-05-04T02:08:35.187Z,9.75
2023-05-04T02:11:01.556Z,8.10
2023-05-04T02:13:28.017Z,8.75
2023-05-04T02:15:54.625Z,9.35
2023-05-04T02:18:21.112Z,7.40
2023-05-04T02:20:47.583Z,5.28
2023-05-04T02:23:13.998Z,10.75
2023-05-04T02:25:41.689Z,8.13
2023-05-04T02:28:08.276Z,7.13
2023-05-04T02:30:34.778Z,11.48
2023-05-04T02:33:01.512Z,7.97
2023-05-04T02:35:28.077Z,10.23
2023-05-04T02:37:54.561Z,6.40
2023-05-04T02:40:20.952Z,9.93
2023-05-04T02:42:47.473Z,7.78
2023-05-04T02:45:14.040Z,10.93
2023-05-04T02:47:40.638Z,8.45
2023-05-04T02:50:07.913Z,10.57
2023-05-04T02:52:34.632Z,7.75
2023-05-04T02:55:03.108Z,8.60
2023-05-04T02:57:29.560Z,8.18
2023-05-04T02:59:56.045Z,8.40
2023-05-04T03:02:22.515Z,9.82
2023-05-04T03:04:49.043Z,9.55
2023-05-04T03:07:15.537Z,8.38
2023-05-04T03:09:42.050Z,8.70
2023-05-04T03:12:08.580Z,10.25
2023-05-04T03:14:35.101Z,10.35
2023-05-04T03:17:01.555Z,10.35
2023-05-04T03:19:27.970Z,12.05
2023-05-04T03:21:54.509Z,13.25
2023-05-04T03:24:21.013Z,13.77
2023-05-04T03:26:47.702Z,9.48
2023-05-04T03:29:14.249Z,11.82
2023-05-04T03:31:40.784Z,10.93
2023-05-04T03:34:09.605Z,10.48
2023-05-04T03:36:36.256Z,8.80
2023-05-04T03:39:03.056Z,10.57
2023-05-04T03:41:29.602Z,10.30
2023-05-04T03:43:56.138Z,14.15
2023-05-04T03:46:22.583Z,12.43
2023-05-04T03:48:49.145Z,10.82
2023-05-04T03:51:15.675Z,8.30
2023-05-04T03:53:43.441Z,9.55
2023-05-04T03:56:11.216Z,11.48
2023-05-04T03:58:37.806Z,8.93
2023-05-04T04:01:04.554Z,9.13
2023-05-04T04:03:31.475Z,14.43
2023-05-04T04:05:58.024Z,10.80
2023-05-04T04:08:24.801Z,12.20
2023-05-04T04:10:51.358Z,8.20
2023-05-04T04:13:17.906Z,8.45
2023-05-04T04:15:46.419Z,9.05
2023-05-04T04:18:13.102Z,9.57
2023-05-04T04:20:39.518Z,11.48
2023-05-04T04:23:06.003Z,11.48
2023-05-04T04:25:32.551Z,9.80
2023-05-04T04:27:59.009Z,9.23
2023-05-04T04:30:25.756Z,10.65
2023-05-04T04:32:52.333Z,8.70
2023-05-04T04:35:18.872Z,9.18
2023-05-04T04:37:45.315Z,10.13
2023-05-04T04:40:13.250Z,13.82
2023-05-04T04:42:39.731Z,10.95
2023-05-04T04:45:07.040Z,10.20
2023-05-04T04:47:33.925Z,10.70
2023-05-04T04:50:00.414Z,9.25
2023-05-04T04:52:26.968Z,7.93
2023-05-04T04:54:53.406Z,8.98
2023-05-04T04:57:20.031Z,10.32
2023-05-04T04:59:46.377Z,10.38
2023-05-04T05:02:12.893Z,11.80
2023-05-04T05:04:40.872Z,10.30
2023-05-04T05:07:10.461Z,10.00
2023-05-04T05:09:37.546Z,9.32
2023-05-04T05:12:05.262Z,13.35
2023-05-04T05:14:31.969Z,10.10
2023-05-04T05:16:59.510Z,13.05
2023-05-04T05:19:26.154Z,9.13
2023-05-04T05:21:53.022Z,9.82
2023-05-04T05:24:19.622Z,14.38
2023-05-04T05:26:46.216Z,8.98
2023-05-04T05:29:12.728Z,13.10
2023-05-04T05:31:39.351Z,13.57
2023-05-04T05:34:05.949Z,9.85
2023-05-04T05:36:32.611Z,9.35
2023-05-04T05:38:59.188Z,10.48
2023-05-04T05:41:25.803Z,11.60
2023-05-04T05:43:52.259Z,9.13
2023-05-04T05:46:18.923Z,10.90
2023-05-04T05:48:45.483Z,14.73
2023-05-04T05:51:12.061Z,13.75
2023-05-04T05:56:06.430Z,8.15
2023-05-04T05:58:32.816Z,8.27
2023-05-04T06:00:59.346Z,8.32
2023-05-04T06:03:26.048Z,10.73
2023-05-04T06:05:52.636Z,11.48
2023-05-04T06:08:19.015Z,11.80
2023-05-04T06:10:45.967Z,10.02
2023-05-04T06:13:12.499Z,14.15
2023-05-04T06:15:39.107Z,11.88
2023-05-04T06:18:05.585Z,9.63
2023-05-04T06:20:32.259Z,8.32
2023-05-04T06:22:58.661Z,9.68
2023-05-04T06:25:25.294Z,8.88
2023-05-04T06:27:51.670Z,10.15
2023-05-04T06:30:18.582Z,8.35
2023-05-04T06:32:47.349Z,8.23
2023-05-04T06:35:13.972Z,8.65
2023-05-04T06:37:40.588Z,12.90
2023-05-04T06:40:07.886Z,9.52
2023-05-04T06:42:34.552Z,10.68
2023-05-04T06:45:01.024Z,10.32
2023-05-04T06:47:27.434Z,7.75
2023-05-04T06:49:54.986Z,6.35
2023-05-04T06:52:21.658Z,7.97
2023-05-04T06:54:48.264Z,8.90
2023-05-04T06:57:14.964Z,8.40
2023-05-04T06:59:41.408Z,7.95
2023-05-04T07:02:07.760Z,7.68
2023-05-04T07:04:34.203Z,10.10
2023-05-04T07:07:00.516Z,8.60
2023-05-04T07:09:27.210Z,8.60
2023-05-04T07:11:53.553Z,9.15
2023-05-04T07:14:20.038Z,14.60
2023-05-04T07:16:46.456Z,8.73
2023-05-04T07:19:12.928Z,10.20
2023-05-04T07:21:39.344Z,11.82
2023-05-04T07:24:06.931Z,6.95
2023-05-04T07:26:36.168Z,8.23
2023-05-04T07:29:02.559Z,11.07
2023-05-04T07:31:30.605Z,8.85
2023-05-04T07:33:57.457Z,9.48
2023-05-04T07:36:26.512Z,10.68
2023-05-04T07:38:53.561Z,7.70
2023-05-04T07:41:20.267Z,10.75
2023-05-04T07:43:46.882Z,9.77
2023-05-04T07:46:13.592Z,8.35
2023-05-04T07:48:40.139Z,7.53
2023-05-04T07:51:06.504Z,9.93
2023-05-04T07:53:33.019Z,7.13
2023-05-04T07:56:07.744Z,5.28
2023-05-04T07:58:34.128Z,8.57
2023-05-04T08:01:00.671Z,10.63
2023-05-04T08:03:27.051Z,9.50
2023-05-04T08:05:53.522Z,5.55
2023-05-04T08:08:21.293Z,5.72
2023-05-04T08:10:48.217Z,6.88
2023-05-04T08:13:14.595Z,6.72
2023-05-04T08:15:41.282Z,11.43
2023-05-04T08:18:07.763Z,10.35
2023-05-04T08:20:34.418Z,9.73
2023-05-04T08:23:02.656Z,7.13
2023-05-04T08:25:29.474Z,7.68
2023-05-04T08:27:56.143Z,9.15
2023-05-04T08:30:23.182Z,8.05
2023-05-04T08:32:51.295Z,9.68
2023-05-04T08:35:17.847Z,7.43
2023-05-04T08:37:44.217Z,5.03
2023-05-04T08:40:12.423Z,9.18
2023-05-04T08:42:40.244Z,7.20
2023-05-04T08:45:07.461Z,6.57
2023-05-04T08:47:33.915Z,6.55
2023-05-04T08:50:00.930Z,8.70
2023-05-04T08:52:28.109Z,5.57
2023-05-04T08:54:56.655Z,6.50
2023-05-04T08:57:24.287Z,6.45
2023-05-04T08:59:53.326Z,9.20
2023-05-04T09:02:22.349Z,6.55
2023-05-04T09:04:49.950Z,5.95
2023-05-04T09:07:18.414Z,6.40
2023-05-04T09:09:45.410Z,8.77
2023-05-04T09:12:12.440Z,8.82
2023-05-04T09:14:39.356Z,9.27
2023-05-04T09:17:17.838Z,7.03
2023-05-04T09:19:44.624Z,9.20
2023-05-04T09:22:21.218Z,8.52
2023-05-04T09:24:47.725Z,8.00
2023-05-04T09:27:18.608Z,7.25
2023-05-04T09:29:53.539Z,6.70
2023-05-04T09:32:20.353Z,6.97
2023-05-04T09:34:54.513Z,7.47
2023-05-04T09:37:22.083Z,6.15
2023-05-04T09:39:58.670Z,6.80
2023-05-04T09:42:26.679Z,11.25
2023-05-04T09:45:01.562Z,8.98
2023-05-04T09:47:47.118Z,7.43
2023-05-04T09:50:15.099Z,8.68
2023-05-04T09:52:44.131Z,5.25
2023-05-04T09:55:13.496Z,10.00
2023-05-04T09:57:44.607Z,10.50
2023-05-04T10:00:16.149Z,6.65
2023-05-04T10:02:48.230Z,9.82
2023-05-04T10:05:17.244Z,11.45
2023-05-04T10:07:44.773Z,12.10
2023-05-04T10:10:15.759Z,7.88
2023-05-04T10:12:44.931Z,6.60
2023-05-04T10:15:12.300Z,9.13
2023-05-04T10:18:04.789Z,7.53
2023-05-04T10:20:52.585Z,7.32
2023-05-04T10:23:56.138Z,8.25
2023-05-04T10:26:51.314Z,6.15
2023-05-04T10:29:23.650Z,7.75
2023-05-04T10:31:51.130Z,9.05
2023-05-04T10:34:34.304Z,9.00
2023-05-04T10:37:03.011Z,8.73
2023-05-04T10:39:32.583Z,9.88
2023-05-04T10:42:02.039Z,7.65
2023-05-04T10:44:29.596Z,8.52
2023-05-04T10:47:04.197Z,5.93
2023-05-04T10:49:32.697Z,6.00
2023-05-04T10:52:08.747Z,6.95
2023-05-04T10:54:37.143Z,6.95
2023-05-04T10:57:05.489Z,4.93
2023-05-04T10:59:34.757Z,7.28
2023-05-04T11:02:03.546Z,5.55
2023-05-04T11:04:30.977Z,5.85
2023-05-04T11:07:01.766Z,9.93
2023-05-04T11:09:29.148Z,6.25
2023-05-04T11:11:56.270Z,6.53
2023-05-04T11:14:25.985Z,6.32
2023-05-04T11:16:53.443Z,3.63
2023-05-04T11:19:19.952Z,5.10
2023-05-04T11:21:46.988Z,8.38
2023-05-04T11:24:13.589Z,3.40
2023-05-04T11:26:48.813Z,8.18
2023-05-04T11:29:15.826Z,5.50
2023-05-04T11:31:44.317Z,5.78
2023-05-04T11:34:18.982Z,6.28
2023-05-04T11:36:45.379Z,3.90
2023-05-04T11:39:11.978Z,4.13
2023-05-04T11:41:38.605Z,6.60
2023-05-04T11:44:06.367Z,6.68
2023-05-04T11:46:34.345Z,5.65
2023-05-04T11:49:01.188Z,6.28
2023-05-04T11:51:29.099Z,4.00
2023-05-04T11:53:56.628Z,7.45
2023-05-04T11:56:23.039Z,3.88
2023-05-04T11:58:49.477Z,6.05
2023-05-04T12:01:15.940Z,4.75
2023-05-04T12:03:52.448Z,4.82
2023-05-04T12:06:30.238Z,7.18
2023-05-04T12:09:01.930Z,5.00
2023-05-04T12:11:28.688Z,7.75
2023-05-04T12:14:04.106Z,8.23
2023-05-04T12:16:30.665Z,3.53
2023-05-04T12:19:05.944Z,4.45
2023-05-04T12:21:33.526Z,5.28
2023-05-04T12:24:00.301Z,3.72
2023-05-04T12:26:27.520Z,4.80
2023-05-04T12:28:54.049Z,11.27
2023-05-04T12:31:21.292Z,4.45
2023-05-04T12:33:50.164Z,4.80
2023-05-04T12:36:17.245Z,5.57
2023-05-04T12:38:43.541Z,7.40
2023-05-04T12:41:11.296Z,5.28
2023-05-04T12:43:38.209Z,3.17
2023-05-04T12:46:04.659Z,4.32
2023-05-04T12:48:32.486Z,6.85
2023-05-04T12:50:59.850Z,4.45
2023-05-04T12:53:31.850Z,5.93
2023-05-04T12:56:02.174Z,5.43
2023-05-04T12:58:28.701Z,7.07
2023-05-04T13:00:56.043Z,6.07
2023-05-04T13:03:22.677Z,4.78
2023-05-04T13:05:49.685Z,8.75
2023-05-04T13:08:17.335Z,7.05
2023-05-04T13:10:43.751Z,8.00
2023-05-04T13:13:10.114Z,5.47
2023-05-04T13:15:36.507Z,5.90
2023-05-04T13:18:03.007Z,3.28
2023-05-04T13:20:29.519Z,5.05
2023-05-04T13:22:58.323Z,3.67
2023-05-04T13:25:25.517Z,4.78
2023-05-04T13:27:52.600Z,4.63
2023-05-04T13:30:20.426Z,5.80
2023-05-04T13:32:46.911Z,4.30
2023-05-04T13:35:13.476Z,6.75
2023-05-04T13:37:39.794Z,6.03
2023-05-04T13:40:06.754Z,6.03
2023-05-04T13:42:35.033Z,6.72
2023-05-04T13:45:03.051Z,6.53
2023-05-04T13:47:29.524Z,4.80
2023-05-04T13:49:55.909Z,4.57
2023-05-04T13:52:22.369Z,7.35
2023-05-04T13:54:49.416Z,3.97
2023-05-04T13:57:15.870Z,3.78
2023-05-04T13:59:48.820Z,6.13
2023-05-04T14:02:25.185Z,5.72
2023-05-04T14:04:51.765Z,5.35
2023-05-04T14:07:18.358Z,5.55
2023-05-04T14:09:44.824Z,7.30
2023-05-04T14:12:11.195Z,7.97
2023-05-04T14:14:37.558Z,3.63
2023-05-04T14:17:04.077Z,7.03
2023-05-04T14:19:30.507Z,3.80
2023-05-04T14:21:56.946Z,4.82
2023-05-04T14:24:24.665Z,3.50
2023-05-04T14:26:51.167Z,4.20
2023-05-04T14:29:17.518Z,3.88
2023-05-04T14:31:43.924Z,3.08
2023-05-04T14:34:10.804Z,4.53
2023-05-04T14:36:37.238Z,4.13
2023-05-04T14:39:03.794Z,3.50
2023-05-04T14:41:33.685Z,4.00
2023-05-04T14:44:00.548Z,5.15
2023-05-04T14:46:29.220Z,4.97
2023-05-04T14:48:55.802Z,4.25
2023-05-04T14:51:23.631Z,4.65
2023-05-04T14:53:50.525Z,4.38
2023-05-04T14:56:16.935Z,5.07
2023-05-04T14:58:43.525Z,3.03
2023-05-04T15:01:09.961Z,6.38
2023-05-04T15:03:36.423Z,6.63
2023-05-04T15:06:03.565Z,4.80
2023-05-04T15:08:30.099Z,7.38
2023-05-04T15:10:59.860Z,3.53
2023-05-04T15:13:26.532Z,6.60
2023-05-04T15:15:52.987Z,4.00
2023-05-04T15:18:20.826Z,5.80
2023-05-04T15:20:47.224Z,3.55
2023-05-04T15:23:13.562Z,4.10
2023-05-04T15:25:40.953Z,4.43
2023-05-04T15:28:10.497Z,5.28
2023-05-04T15:30:39.972Z,4.10
2023-05-04T15:33:06.995Z,4.20
2023-05-04T15:35:35.003Z,3.03
2023-05-04T15:38:01.840Z,3.25
2023-05-04T15:40:29.093Z,4.82
2023-05-04T15:42:56.023Z,4.50
2023-05-04T15:45:22.483Z,3.83
2023-05-04T15:47:49.241Z,3.63
2023-05-04T15:50:15.820Z,2.97
2023-05-04T15:52:42.192Z,3.60
2023-05-04T15:55:24.254Z,3.40
2023-05-04T15:57:52.312Z,4.35
2023-05-04T16:00:19.102Z,4.25
2023-05-04T16:02:45.516Z,2.63
2023-05-04T16:05:12.019Z,4.78
2023-05-04T16:07:38.499Z,5.35
2023-05-04T16:10:05.720Z,4.82
2023-05-04T16:12:32.267Z,3.80
2023-05-04T16:14:58.684Z,1.92
2023-05-04T16:17:25.662Z,3.83
2023-05-04T16:19:52.070Z,2.72
2023-05-04T16:22:18.436Z,5.18
2023-05-04T16:24:44.728Z,3.30
2023-05-04T16:27:11.018Z,3.17
2023-05-04T16:29:37.399Z,6.43
2023-05-04T16:32:03.922Z,3.30
2023-05-04T16:34:30.441Z,2.88
2023-05-04T16:36:56.765Z,2.38
2023-05-04T16:39:26.987Z,4.30
2023-05-04T16:41:53.286Z,2.10
2023-05-04T16:44:19.604Z,1.90
2023-05-04T16:46:46.249Z,3.70
2023-05-04T16:49:14.669Z,8.05
2023-05-04T16:51:41.453Z,2.67
2023-05-04T16:54:07.808Z,5.45
2023-05-04T16:56:34.213Z,2.58
2023-05-04T16:59:00.966Z,2.33
2023-05-04T17:01:27.324Z,5.78
2023-05-04T17:03:53.910Z,3.88
2023-05-04T17:06:20.592Z,2.88
2023-05-04T17:08:46.983Z,3.55
2023-05-04T17:11:13.343Z,3.97
2023-05-04T17:13:39.739Z,4.90
2023-05-04T17:16:06.639Z,5.40
2023-05-04T17:18:33.145Z,8.00
2023-05-04T17:20:59.513Z,6.55
2023-05-04T17:23:25.945Z,3.78
2023-05-04T17:25:52.334Z,3.00
2023-05-04T17:28:18.773Z,4.05
2023-05-04T17:30:45.277Z,6.88
2023-05-04T17:33:11.754Z,6.72
2023-05-04T17:35:38.207Z,4.63
2023-05-04T17:38:04.720Z,3.75
2023-05-04T17:40:31.185Z,3.30
2023-05-04T17:42:57.691Z,3.75
2023-05-04T17:45:24.175Z,2.22
2023-05-04T17:47:51.215Z,3.28
2023-05-04T17:50:17.689Z,2.45
2023-05-04T17:52:44.127Z,3.63
2023-05-04T17:57:57.232Z,5.53
2023-05-04T18:00:24.173Z,2.63
2023-05-04T18:02:50.962Z,3.70
2023-05-04T18:05:17.704Z,3.25
2023-05-04T18:07:44.259Z,2.60
2023-05-04T18:10:11.183Z,6.15
2023-05-04T18:12:38.481Z,4.78
2023-05-04T18:15:08.394Z,3.65
2023-05-04T18:17:37.849Z,6.28
2023-05-04T18:20:07.286Z,2.92
2023-05-04T18:22:34.399Z,6.15
2023-05-04T18:25:01.669Z,3.80
2023-05-04T18:27:33.518Z,4.95
2023-05-04T18:30:00.878Z,4.35
2023-05-04T18:32:27.645Z,6.22
2023-05-04T18:34:54.804Z,5.15
2023-05-04T18:37:21.618Z,5.85
2023-05-04T18:39:48.085Z,3.95
2023-05-04T18:42:14.619Z,4.57
2023-05-04T18:44:41.437Z,4.28
2023-05-04T18:47:08.531Z,7.60
2023-05-04T18:49:35.009Z,3.88
2023-05-04T18:52:01.962Z,4.60
2023-05-04T18:54:32.367Z,4.57
2023-05-04T18:56:59.211Z,4.68
2023-05-04T18:59:26.092Z,4.18
2023-05-04T19:01:53.052Z,5.43
2023-05-04T19:04:19.758Z,5.15
2023-05-04T19:06:47.677Z,8.50
2023-05-04T19:09:14.902Z,4.05
2023-05-04T19:11:41.582Z,4.85
2023-05-04T19:14:08.080Z,5.10
2023-05-04T19:16:34.736Z,5.07
2023-05-04T19:19:01.314Z,6.32
2023-05-04T19:21:28.448Z,5.30
2023-05-04T19:23:55.006Z,9.88
2023-05-04T19:26:21.898Z,7.07
2023-05-04T19:28:48.373Z,5.65
2023-05-04T19:31:15.526Z,6.43
2023-05-04T19:33:48.589Z,7.43
2023-05-04T19:36:16.802Z,3.65
2023-05-04T19:38:43.522Z,4.03
2023-05-04T19:41:10.086Z,5.35
2023-05-04T19:43:38.453Z,4.90
2023-05-04T19:46:05.125Z,4.22
2023-05-04T19:48:31.821Z,8.02
2023-05-04T19:50:58.453Z,7.03
2023-05-04T19:53:25.192Z,6.10
2023-05-04T19:55:51.743Z,6.13
2023-05-04T19:58:19.699Z,6.90
2023-05-04T20:00:46.507Z,5.28
2023-05-04T20:03:13.074Z,12.27
2023-05-04T20:05:40.402Z,4.70
2023-05-04T20:08:06.946Z,10.13
2023-05-04T20:10:33.639Z,6.05
2023-05-04T20:13:00.165Z,7.68
2023-05-04T20:15:26.955Z,5.85
2023-05-04T20:17:53.490Z,13.60
2023-05-04T20:20:21.523Z,8.00
2023-05-04T20:22:51.911Z,4.50
2023-05-04T20:25:19.943Z,3.65
2023-05-04T20:27:48.715Z,5.82
2023-05-04T20:30:15.323Z,7.47
2023-05-04T20:32:42.203Z,6.88
2023-05-04T20:35:13.992Z,5.75
2023-05-04T20:37:40.433Z,7.38
2023-05-04T20:40:08.310Z,6.07
2023-05-04T20:42:35.037Z,5.30
2023-05-04T20:45:01.619Z,4.70
2023-05-04T20:47:28.544Z,7.47
2023-05-04T20:49:55.105Z,6.90
2023-05-04T20:52:21.597Z,6.15
2023-05-04T20:54:48.094Z,7.70
2023-05-04T20:57:14.705Z,5.88
2023-05-04T20:59:41.199Z,6.00
2023-05-04T21:02:07.891Z,10.63
2023-05-04T21:04:34.363Z,5.60
2023-05-04T21:07:00.976Z,7.07
2023-05-04T21:09:27.990Z,6.13
2023-05-04T21:11:54.698Z,5.25
2023-05-04T21:14:21.381Z,7.32
2023-05-04T21:16:47.966Z,7.70
2023-05-04T21:19:14.516Z,7.28
2023-05-04T21:21:41.338Z,6.25
2023-05-04T21:24:13.150Z,5.38
2023-05-04T21:26:40.242Z,6.82
2023-05-04T21:29:11.602Z,6.15
2023-05-04T21:31:38.104Z,6.57
2023-05-04T21:34:04.898Z,7.03
2023-05-04T21:36:31.701Z,4.82
2023-05-04T21:38:58.577Z,8.63
2023-05-04T21:41:25.255Z,5.45
2023-05-04T21:43:51.778Z,8.07
2023-05-04T21:46:18.291Z,9.52
2023-05-04T21:48:44.830Z,9.15
2023-05-04T21:51:11.257Z,7.28
2023-05-04T21:53:37.805Z,4.95
2023-05-04T21:56:08.710Z,8.02
2023-05-04T21:58:37.978Z,8.65
2023-05-04T22:01:05.673Z,6.68
2023-05-04T22:03:32.386Z,4.32
2023-05-04T22:05:59.147Z,6.85
2023-05-04T22:08:26.189Z,6.93
2023-05-04T22:10:54.441Z,5.07
2023-05-04T22:13:21.313Z,6.03
2023-05-04T22:15:50.267Z,9.57
2023-05-04T22:18:17.277Z,7.28
2023-05-04T22:20:44.013Z,9.82
2023-05-04T22:23:11.039Z,7.80
2023-05-04T22:25:38.286Z,10.65
2023-05-04T22:28:05.073Z,9.13
2023-05-04T22:30:32.354Z,5.47
2023-05-04T22:32:59.094Z,10.07
2023-05-04T22:35:25.643Z,6.20
2023-05-04T22:37:52.305Z,6.32
2023-05-04T22:40:19.092Z,9.70
2023-05-04T22:42:45.732Z,8.48
2023-05-04T22:45:14.342Z,6.93
2023-05-04T22:47:41.731Z,5.85
2023-05-04T22:50:09.630Z,9.00
2023-05-04T22:52:36.736Z,6.07
2023-05-04T22:55:03.964Z,6.07
2023-05-04T22:57:30.643Z,6.82
2023-05-04T22:59:57.460Z,5.53
2023-05-04T23:02:24.565Z,6.93
2023-05-04T23:04:51.076Z,8.10
2023-05-04T23:07:17.706Z,5.40
2023-05-04T23:09:47.437Z,5.28
2023-05-04T23:12:15.164Z,6.53
2023-05-04T23:14:41.990Z,7.63
2023-05-04T23:17:09.563Z,8.93
2023-05-04T23:19:36.579Z,6.57
2023-05-04T23:22:03.118Z,9.38
2023-05-04T23:24:29.658Z,8.93
2023-05-04T23:26:56.096Z,5.93
2023-05-04T23:29:22.598Z,6.30
2023-05-04T23:31:49.160Z,6.32
2023-05-04T23:34:16.198Z,5.05
2023-05-04T23:36:42.633Z,10.38
2023-05-04T23:39:09.268Z,5.72
2023-05-04T23:41:35.853Z,10.35
2023-05-04T23:44:03.350Z,11.73
2023-05-04T23:46:30.081Z,6.28
2023-05-04T23:48:56.731Z,6.60
2023-05-04T23:51:23.376Z,7.35
2023-05-04T23:53:49.940Z,8.50
2023-05-04T23:58:57.911Z,8.18
